Wednesday, June 20, 2018, 3:41 AM EDT

KMUI, Muir Army Air Field / Indiantown

Location: Jonestown, PA, United States Lat: 40.433
Local Time: 3:41 AM EDT ( 7:41 GMT) Lon: -76.567
Time Zone: US/Eastern Elev: 488 ft

Show me the last for .
Show Decoded

2018-06-20 02:56 METAR KMUI 200656Z AUTO 00000KT 10SM FEW200 18/10 A2990 RMK AO2 SLP125 T01840095
                 $ =
2018-06-20 01:56 METAR KMUI 200556Z AUTO 04004KT 10SM SCT130 SCT190 20/09 A2990 RMK AO2 SLP125
                 T01980088 10242 20181 55003 $ =
2018-06-20 00:56 METAR KMUI 200456Z AUTO 06005KT 10SM FEW160 BKN180 20/10 A2991 RMK AO2 SLP128
                 T01980097 402960181 $ =
2018-06-19 23:56 METAR KMUI 200356Z AUTO 05003KT 10SM OVC180 20/10 A2990 RMK AO2 SLP125 T02000101
                 $ =
2018-06-19 22:56 METAR KMUI 200256Z AUTO 00000KT 10SM SCT190 19/10 A2991 RMK AO2 SLP129 T01940098
                 51011 $ =
2018-06-19 21:56 METAR KMUI 200156Z AUTO 12004KT 10SM CLR 21/11 A2991 RMK AO2 SLP128 T02070108 $
                 =
2018-06-19 20:56 METAR KMUI 200056Z AUTO 00000KT 10SM CLR 22/12 A2990 RMK AO2 SLP125 T02150121 $
                 =
2018-06-19 19:56 METAR KMUI 192356Z AUTO 36004KT 10SM CLR 24/14 A2988 RMK AO2 SLP118 T02440136
                 10296 20244 53005 $ =
2018-06-19 18:56 METAR KMUI 192256Z AUTO 35007KT 10SM CLR 28/10 A2986 RMK AO2 SLP110 T02770099 $
                 =
2018-06-19 17:56 METAR KMUI 192156Z AUTO 36006KT 10SM CLR 29/12 A2986 RMK AO2 SLP110 T02860116 $
                 =
2018-06-19 16:56 METAR KMUI 192056Z 33008KT 10SM FEW060 SCT250 29/13 A2986 RMK AO2A SLP110
                 T02890131 56005 $ =
2018-06-19 15:56 METAR KMUI 191956Z 33007KT 10SM FEW060 SCT250 29/14 A2986 RMK AO2A SLP110
                 T02930139 $ =
2018-06-19 14:56 METAR KMUI 191856Z 02006KT 10SM FEW050 SCT250 29/14 A2987 RMK AO2A SLP114
                 T02900136 $ =
2018-06-19 13:56 METAR KMUI 191756Z 35004KT 10SM SCT035 BKN250 28/15 A2988 RMK AO2A SLP117 60000
                 T02840149 10284 20242 58000 $ =
2018-06-19 12:56 METAR KMUI 191656Z 03005KT 10SM SCT030 SCT100 BKN230 27/17 A2988 RMK AO2A SLP117
                 T02720173 $ =
2018-06-19 11:56 METAR KMUI 191556Z 03008KT 10SM SCT029 SCT040 BKN100 BKN200 27/18 A2988 RMK AO2A
                 SLP117 T02660182 $ =
2018-06-19 11:36 METAR KMUI 191536Z 04009KT 10SM SCT028 BKN040 BKN100 BKN200 27/19 A2988 RMK AO2A
                 SLP117 $ =
2018-06-19 11:06 METAR KMUI 191506Z 01006KT 10SM BKN028 BKN060 OVC090 25/19 A2988 RMK AO2A BKN028
                 V SCT SLP117 $ =
2018-06-19 10:56 METAR KMUI 191456Z 36007KT 10SM SCT028 BKN060 OVC090 25/19 A2988 RMK AO2A SLP117
                 60000 T02500193 52015 $ =
2018-06-19 10:26 METAR KMUI 191426Z 34005KT 10SM SCT022 BKN043 BKN055 OVC090 25/20 A2987 RMK AO2A
                 SLP114 $ =
2018-06-19 10:16 METAR KMUI 191416Z 35006KT 10SM BKN022 BKN043 OVC090 24/20 A2987 RMK AO2A SLP114
                 $ =
2018-06-19 09:56 METAR KMUI 191356Z 02004KT 10SM SCT020 OVC040 24/20 A2987 RMK AO2A SLP114
                 T02440201 $ =
2018-06-19 09:16 METAR KMUI 191316Z 01008KT 10SM SCT022 OVC032 24/20 A2987 RMK AO2A SLP113 $ =
2018-06-19 08:56 METAR KMUI 191256Z 36009G15KT 10SM BKN020 OVC026 24/20 A2986 RMK AO2A
                 RAB03E13DZB13E15DZB47E54 SLP110 P0000 T02440203 $ =
2018-06-19 08:54 METAR KMUI 191254Z 35007G14KT 10SM OVC022 24/21 A2986 RMK AO2A
                 RAB03E13DZB13E15DZB47E54 SLP110 $ =
2018-06-19 08:47 METAR KMUI 191247Z 34008KT 10SM -DZ BKN019 BKN034 25/22 A2985 RMK AO2A
                 RAB03E13DZB13E15DZB47 SLP107 $ =
2018-06-19 08:44 METAR KMUI 191244Z 03009KT 10SM BKN019 BKN034 OVC090 25/22 A2985 RMK AO2A
                 RAB03E13DZB13E15 SLP107 $ =
2018-06-19 08:14 METAR KMUI 191214Z COR 30008KT 10SM SCT014 BKN090 OVC140 25/22 A2984 RMK AO2A
                 RAB03E13DZB13 SLP103 $ COR 1223 =
2018-06-19 08:03 METAR KMUI 191203Z 29006KT 10SM -RA FEW009 SCT014 BKN100 OVC150 25/22 A2984 RMK
                 AO2A RAB03 SLP103 $ =
2018-06-19 07:56 METAR KMUI 191156Z 30005KT 10SM FEW009 SCT014 BKN100 OVC150 25/22 A2984 RMK AO2A
                 DZB32E42 SLP103 P0000 60004 70010 T02460223 10246 20237 50004 $ =
2018-06-19 07:42 METAR KMUI 191142Z 29006KT 10SM FEW009 SCT015 BKN100 BKN140 25/22 A2983 RMK AO2A
                 DZB32E42 SLP100 $ =
2018-06-19 07:32 METAR KMUI 191132Z 29007KT 10SM -DZ FEW007 SCT012 BKN090 BKN120 24/22 A2983 RMK
                 AO2A DZB32 SLP100 $ =
2018-06-19 06:56 METAR KMUI 191056Z 27008KT 10SM FEW007 SCT012 BKN090 BKN110 24/21 A2983 RMK AO2A
                 DZB15E24 SLP100 $ =
2018-06-19 06:24 METAR KMUI 191024Z AUTO 25004KT 10SM BKN090 BKN110 24/23 A2984 RMK AO2 DZB15E24
                 SLP103 $ =
2018-06-19 06:15 METAR KMUI 191015Z AUTO 28006G15KT 10SM -DZ BKN085 BKN100 24/23 A2984 RMK AO2
                 DZB15 SLP103 $ =
2018-06-19 05:56 METAR KMUI 190956Z AUTO 28006G16KT 10SM FEW012 FEW018 BKN100 24/23 A2984 RMK AO2
                 DZB31E45 SLP103 P0000 T02390232 $ =
2018-06-19 05:45 METAR KMUI 190945Z AUTO 26004KT 10SM FEW013 SCT018 BKN110 24/23 A2984 RMK AO2
                 DZB31E45 SLP103 $ =
2018-06-19 05:31 METAR KMUI 190931Z AUTO 25006KT 10SM -DZ FEW018 BKN120 24/23 A2983 RMK AO2 DZB31
                 SLP099 $ =
2018-06-19 04:56 METAR KMUI 190856Z AUTO 27005KT 10SM BKN110 24/23 A2982 RMK AO2 SLP096 60004
                 T02400233 55009 $ =
2018-06-19 03:56 METAR KMUI 190756Z AUTO 24008KT 10SM SCT140 24/24 A2982 RMK AO2
                 RAB0656E00DZB00E06DZB10E36 SLP096 P0000 T02400235 $ =

Support USWX by starting your Amazon purchase here.